Weather at Ooldea Airport

Public forecast

Using degrees Celsius for public forecast. Weather courtesy of forecast.io.

Closest aviation weather report (METAR) to Ooldea Airport

Closest report is Ceduna Airport, 139.5 nm (258.4 km) SE. Retrieved 2021/06/25 03:00 UTC (44 minutes ago):

YCDU 250300Z AUTO 23013KT 9999 // SCT037 14/09 Q1022

Closest aviation forecast (TAF) to Ooldea Airport

Closest forecast is Forrest Airport, 192.9 nm (357.2 km) W. Retrieved 2021-06-25 02:00 UTC (2 hours ago):

TAF YFRT 250035Z 2502/2514 23009KT 9999 BKN040 FM251300 29004KT 9999 SCT040